KSEP/SEP METAR and TAF weather

Enter ICAO airport designator
Station Type Date Time Source
KSEP METAR 2021/05/14 12:55 UTC NOAA

KSEP 141255Z AUTO 00000KT 10SM BKN060 14/12 A3025 RMK AO2 T01380120


Station Type Date Time Source
KSEP Decoded METAR 2021/05/14 12:55 UTC NOAA

Stephenville, Clark Field Municipal Airport, TX, United States (KSEP) 32-13N 098-11W 402M
May 14, 2021 - 08:55 AM EDT / 2021.05.14 1255 UTC
Wind: Calm:0
Visibility: 10 mile(s):0
Sky conditions: mostly cloudy
Temperature: 56.8 F (13.8 C)
Dew Point: 53.6 F (12.0 C)
Relative Humidity: 88%
Pressure (altimeter): 30.25 in. Hg (1024 hPa)
ob: KSEP 141255Z AUTO 00000KT 10SM BKN060 14/12 A3025 RMK AO2 T01380120
cycle: 13

Station Type Date Time Source
KSEP TAF UTC NOAA

Error!

Example: see airport list